createdAt,value
2017-09-28T00:00:14.724Z,27.70
2017-09-28T00:02:42.291Z,27.87
2017-09-28T00:05:10.089Z,26.40
2017-09-28T00:07:37.844Z,28.30
2017-09-28T00:10:05.359Z,27.53
2017-09-28T00:12:33.041Z,27.90
2017-09-28T00:15:00.544Z,28.20
2017-09-28T00:17:28.284Z,27.27
2017-09-28T00:19:55.809Z,27.63
2017-09-28T00:22:23.892Z,27.80
2017-09-28T00:24:51.392Z,26.30
2017-09-28T00:27:18.907Z,27.27
2017-09-28T00:29:46.420Z,26.83
2017-09-28T00:32:14.708Z,25.77
2017-09-28T00:34:42.984Z,26.27
2017-09-28T00:37:10.507Z,27.03
2017-09-28T00:39:38.037Z,26.30
2017-09-28T00:42:05.548Z,25.40
2017-09-28T00:44:33.064Z,26.50
2017-09-28T00:47:00.572Z,26.23
2017-09-28T00:49:28.092Z,27.10
2017-09-28T00:51:55.753Z,27.50
2017-09-28T00:54:23.267Z,25.93
2017-09-28T00:56:51.281Z,25.97
2017-09-28T00:59:18.795Z,27.10
2017-09-28T01:01:46.303Z,25.97
2017-09-28T01:04:13.960Z,27.23
2017-09-28T01:06:41.734Z,27.07
2017-09-28T01:09:09.354Z,28.50
2017-09-28T01:11:36.951Z,25.70
2017-09-28T01:14:04.457Z,25.33
2017-09-28T01:16:32.185Z,25.07
2017-09-28T01:18:59.908Z,27.60
2017-09-28T01:21:27.622Z,24.97
2017-09-28T01:23:55.129Z,26.97
2017-09-28T01:26:22.913Z,25.30
2017-09-28T01:28:50.687Z,26.97
2017-09-28T01:31:18.208Z,25.60
2017-09-28T01:33:45.721Z,28.10
2017-09-28T01:36:13.999Z,25.77
2017-09-28T01:38:41.730Z,28.13
2017-09-28T01:41:09.489Z,28.80
2017-09-28T01:43:37.008Z,25.50
2017-09-28T01:46:04.515Z,27.37
2017-09-28T01:48:32.161Z,27.50
2017-09-28T01:50:59.923Z,27.90
2017-09-28T01:53:27.435Z,26.57
2017-09-28T01:55:54.957Z,24.90
2017-09-28T01:58:22.611Z,26.13
2017-09-28T02:00:50.379Z,27.93
2017-09-28T02:03:18.127Z,26.10
2017-09-28T02:05:45.659Z,27.30
2017-09-28T02:08:13.864Z,26.20
2017-09-28T02:10:41.397Z,26.40
2017-09-28T02:13:08.904Z,26.53
2017-09-28T02:15:36.649Z,26.10
2017-09-28T02:18:04.932Z,26.57
2017-09-28T02:20:32.481Z,25.20
2017-09-28T02:22:59.993Z,27.03
2017-09-28T02:25:27.696Z,26.13
2017-09-28T02:27:55.463Z,26.83
2017-09-28T02:30:22.984Z,27.50
2017-09-28T02:32:50.493Z,27.53
2017-09-28T02:35:18.142Z,28.30
2017-09-28T02:37:45.907Z,27.33
2017-09-28T02:40:13.667Z,28.10
2017-09-28T02:42:41.428Z,26.77
2017-09-28T02:45:08.941Z,27.87
2017-09-28T02:47:36.652Z,27.57
2017-09-28T02:50:04.408Z,26.90
2017-09-28T02:52:31.925Z,28.10
2017-09-28T02:55:00.241Z,26.53
2017-09-28T02:57:28.016Z,26.50
2017-09-28T02:59:55.532Z,26.57
2017-09-28T03:02:23.228Z,27.60
2017-09-28T03:04:50.744Z,26.97
2017-09-28T03:07:18.255Z,26.53
2017-09-28T03:09:45.764Z,28.20
2017-09-28T03:12:13.363Z,27.40
2017-09-28T03:14:40.863Z,27.10
2017-09-28T03:17:08.581Z,26.37
2017-09-28T03:19:36.093Z,26.10
2017-09-28T03:22:03.804Z,26.43
2017-09-28T03:24:31.318Z,25.80
2017-09-28T03:26:59.023Z,26.70
2017-09-28T03:29:26.537Z,27.20
2017-09-28T03:31:54.056Z,27.93
2017-09-28T03:34:21.701Z,27.17
2017-09-28T03:36:49.352Z,25.47
2017-09-28T03:39:16.921Z,27.33
2017-09-28T03:41:44.440Z,27.00
2017-09-28T03:44:12.142Z,27.97
2017-09-28T03:46:39.900Z,26.40
2017-09-28T03:49:07.673Z,27.03
2017-09-28T03:51:35.423Z,25.73
2017-09-28T03:54:02.940Z,26.33
2017-09-28T03:56:30.460Z,25.90
2017-09-28T03:58:58.109Z,27.60
2017-09-28T04:01:25.617Z,24.57
2017-09-28T04:03:53.323Z,26.10
2017-09-28T04:06:21.085Z,27.30
2017-09-28T04:08:48.856Z,26.27
2017-09-28T04:11:16.614Z,28.50
2017-09-28T04:13:44.561Z,26.50
2017-09-28T04:16:12.060Z,26.40
2017-09-28T04:18:39.575Z,25.83
2017-09-28T04:21:07.096Z,26.87
2017-09-28T04:23:34.632Z,26.47
2017-09-28T04:26:02.307Z,26.27
2017-09-28T04:28:30.042Z,27.00
2017-09-28T04:30:57.556Z,27.07
2017-09-28T04:33:25.075Z,27.23
2017-09-28T04:35:52.721Z,27.13
2017-09-28T04:38:20.228Z,28.00
2017-09-28T04:40:47.755Z,25.87
2017-09-28T04:43:15.396Z,26.10
2017-09-28T04:45:42.899Z,26.33
2017-09-28T04:48:10.613Z,25.87
2017-09-28T04:50:38.128Z,27.40
2017-09-28T04:53:05.668Z,27.60
2017-09-28T04:55:33.958Z,28.00
2017-09-28T04:58:01.465Z,27.70
2017-09-28T05:00:29.125Z,28.77
2017-09-28T05:02:56.663Z,25.30
2017-09-28T05:05:24.343Z,27.70
2017-09-28T05:07:52.118Z,27.07
2017-09-28T05:10:19.628Z,27.60
2017-09-28T05:12:47.946Z,26.57
2017-09-28T05:15:15.705Z,26.67
2017-09-28T05:17:43.215Z,28.27
2017-09-28T05:20:10.732Z,28.13
2017-09-28T05:22:38.257Z,27.10
2017-09-28T05:25:06.452Z,27.17
2017-09-28T05:27:33.952Z,29.17
2017-09-28T05:30:01.583Z,28.20
2017-09-28T05:32:29.132Z,27.17
2017-09-28T05:34:56.665Z,27.17
2017-09-28T05:37:24.172Z,28.60
2017-09-28T05:39:51.820Z,29.43
2017-09-28T05:42:19.465Z,27.70
2017-09-28T05:44:46.985Z,29.83
2017-09-28T05:47:14.789Z,29.57
2017-09-28T05:49:42.553Z,28.53
2017-09-28T05:52:10.294Z,29.23
2017-09-28T05:54:37.806Z,28.37
2017-09-28T05:57:05.523Z,28.70
2017-09-28T05:59:33.304Z,28.40
2017-09-28T06:02:00.815Z,28.30
2017-09-28T06:04:28.330Z,29.30
2017-09-28T06:06:55.846Z,31.70
2017-09-28T06:09:23.395Z,26.87
2017-09-28T06:11:50.923Z,29.10
2017-09-28T06:14:18.652Z,26.67
2017-09-28T06:16:46.419Z,28.20
2017-09-28T06:19:14.366Z,28.57
2017-09-28T06:21:41.880Z,28.40
2017-09-28T06:24:09.378Z,28.80
2017-09-28T06:26:36.896Z,30.30
2017-09-28T06:29:04.444Z,28.47
2017-09-28T06:31:32.093Z,27.37
2017-09-28T06:33:59.620Z,29.70
2017-09-28T06:36:27.304Z,30.10
2017-09-28T06:38:54.823Z,29.23
2017-09-28T06:41:22.328Z,30.40
2017-09-28T06:43:49.848Z,30.20
2017-09-28T06:46:17.563Z,30.80
2017-09-28T06:48:46.010Z,29.37
2017-09-28T06:51:13.535Z,29.00
2017-09-28T06:53:41.336Z,35.00
2017-09-28T06:56:08.856Z,37.70
2017-09-28T06:58:36.536Z,38.47
2017-09-28T07:01:04.040Z,35.20
2017-09-28T07:03:31.577Z,31.60
2017-09-28T07:05:59.094Z,33.57
2017-09-28T07:08:26.857Z,55.63
2017-09-28T07:10:54.448Z,39.30
2017-09-28T07:13:21.952Z,33.20
2017-09-28T07:15:49.672Z,48.03
2017-09-28T07:18:17.185Z,32.30
2017-09-28T07:20:44.715Z,34.83
2017-09-28T07:23:12.388Z,39.97
2017-09-28T07:25:40.113Z,33.63
2017-09-28T07:28:07.616Z,34.20
2017-09-28T07:30:35.132Z,33.93
2017-09-28T07:33:02.639Z,33.07
2017-09-28T07:35:30.180Z,33.87
2017-09-28T07:37:57.717Z,34.40
2017-09-28T07:40:25.226Z,34.90
2017-09-28T07:42:52.800Z,32.10
2017-09-28T07:45:20.382Z,39.07
2017-09-28T07:47:48.150Z,37.23
2017-09-28T07:50:15.904Z,37.00
2017-09-28T07:52:43.673Z,35.33
2017-09-28T07:55:11.207Z,33.97
2017-09-28T07:57:38.864Z,38.90
2017-09-28T08:00:06.628Z,37.33
2017-09-28T08:02:34.264Z,36.90
2017-09-28T08:05:02.816Z,35.53
2017-09-28T08:07:30.317Z,40.13
2017-09-28T08:09:58.012Z,37.67
2017-09-28T08:12:25.774Z,38.90
2017-09-28T08:14:53.286Z,35.57
2017-09-28T08:17:20.979Z,36.73
2017-09-28T08:19:48.776Z,36.97
2017-09-28T08:22:16.398Z,35.17
2017-09-28T08:24:43.966Z,38.87
2017-09-28T08:27:11.474Z,38.57
2017-09-28T08:29:39.199Z,38.70
2017-09-28T08:32:06.714Z,39.30
2017-09-28T08:34:34.224Z,36.27
2017-09-28T08:37:01.880Z,37.23
2017-09-28T08:39:29.640Z,39.13
2017-09-28T08:41:57.143Z,39.00
2017-09-28T08:44:24.735Z,35.80
2017-09-28T08:46:52.284Z,38.57
2017-09-28T08:49:19.801Z,38.20
2017-09-28T08:51:47.516Z,37.77
2017-09-28T08:54:15.044Z,41.70
2017-09-28T08:56:43.351Z,39.97
2017-09-28T08:59:10.870Z,42.73
2017-09-28T09:01:38.495Z,41.83
2017-09-28T09:04:06.052Z,38.30
2017-09-28T09:06:33.816Z,57.30
2017-09-28T09:09:01.352Z,41.87
2017-09-28T09:11:28.855Z,40.20
2017-09-28T09:13:56.405Z,40.77
2017-09-28T09:16:23.948Z,39.27
2017-09-28T09:18:51.466Z,37.33
2017-09-28T09:21:18.976Z,40.30
2017-09-28T09:23:46.625Z,38.50
2017-09-28T09:26:14.392Z,37.60
2017-09-28T09:28:41.891Z,41.37
2017-09-28T09:31:09.612Z,36.70
2017-09-28T09:33:37.119Z,40.60
2017-09-28T09:36:05.453Z,40.13
2017-09-28T09:38:32.959Z,38.00
2017-09-28T09:41:00.480Z,37.57
2017-09-28T09:43:28.092Z,35.57
2017-09-28T09:45:55.599Z,36.50
2017-09-28T09:48:23.124Z,38.97
2017-09-28T09:50:50.632Z,36.03
2017-09-28T09:53:18.225Z,38.73
2017-09-28T09:55:46.011Z,39.93
2017-09-28T09:58:13.525Z,36.70
2017-09-28T10:00:41.232Z,38.63
2017-09-28T10:03:09.011Z,39.37
2017-09-28T10:05:36.763Z,38.40
2017-09-28T10:08:07.203Z,38.37
2017-09-28T10:10:37.481Z,37.00
2017-09-28T10:13:14.329Z,37.33
2017-09-28T10:15:49.308Z,38.70
2017-09-28T10:18:16.850Z,36.23
2017-09-28T10:20:44.352Z,41.60
2017-09-28T10:23:11.991Z,38.50
2017-09-28T10:25:39.694Z,38.27
2017-09-28T10:28:07.201Z,39.40
2017-09-28T10:30:34.772Z,40.10
2017-09-28T10:33:02.283Z,40.60
2017-09-28T10:35:29.804Z,40.27
2017-09-28T10:37:57.328Z,39.33
2017-09-28T10:40:25.116Z,44.50
2017-09-28T10:42:53.053Z,47.07
2017-09-28T10:45:20.624Z,43.47
2017-09-28T10:47:48.128Z,43.23
2017-09-28T10:50:15.837Z,43.87
2017-09-28T10:52:43.719Z,43.60
2017-09-28T10:55:11.215Z,41.37
2017-09-28T10:57:39.703Z,43.30
2017-09-28T11:00:07.240Z,43.47
2017-09-28T11:02:34.749Z,42.50
2017-09-28T11:05:02.290Z,39.80
2017-09-28T11:07:30.687Z,42.30
2017-09-28T11:09:58.277Z,43.97
2017-09-28T11:12:25.811Z,44.20
2017-09-28T11:14:53.359Z,44.57
2017-09-28T11:17:21.097Z,42.60
2017-09-28T11:19:48.588Z,44.20
2017-09-28T11:22:16.167Z,45.33
2017-09-28T11:24:43.935Z,42.37
2017-09-28T11:27:11.457Z,41.57
2017-09-28T11:29:38.962Z,41.57
2017-09-28T11:32:06.472Z,40.77
2017-09-28T11:34:34.085Z,39.10
2017-09-28T11:37:01.831Z,40.50
2017-09-28T11:39:29.344Z,43.90
2017-09-28T11:41:57.564Z,42.23
2017-09-28T11:44:25.124Z,43.47
2017-09-28T11:46:52.889Z,40.90
2017-09-28T11:49:20.412Z,41.90
2017-09-28T11:51:47.925Z,39.43
2017-09-28T11:54:15.560Z,40.97
2017-09-28T11:56:43.069Z,42.80
2017-09-28T11:59:10.786Z,44.77
2017-09-28T12:01:38.300Z,39.80
2017-09-28T12:04:05.956Z,43.30
2017-09-28T12:06:33.477Z,42.20
2017-09-28T12:09:00.980Z,46.00
2017-09-28T12:11:28.696Z,44.47
2017-09-28T12:13:56.216Z,40.10
2017-09-28T12:16:23.912Z,41.33
2017-09-28T12:18:51.425Z,44.87
2017-09-28T12:21:19.019Z,41.90
2017-09-28T12:23:46.527Z,40.83
2017-09-28T12:26:14.341Z,42.03
2017-09-28T12:28:42.101Z,40.67
2017-09-28T12:31:09.627Z,41.00
2017-09-28T12:33:37.128Z,44.30
2017-09-28T12:36:05.088Z,41.90
2017-09-28T12:38:32.596Z,43.43
2017-09-28T12:41:01.232Z,43.00
2017-09-28T12:43:28.740Z,43.50
2017-09-28T12:45:56.424Z,43.50
2017-09-28T12:48:24.044Z,44.53
2017-09-28T12:50:52.600Z,44.73
2017-09-28T12:53:20.653Z,46.53
2017-09-28T12:55:48.171Z,44.23
2017-09-28T12:58:16.064Z,46.10
2017-09-28T13:00:43.592Z,46.20
2017-09-28T13:03:11.100Z,47.53
2017-09-28T13:05:38.885Z,45.10
2017-09-28T13:08:06.610Z,48.33
2017-09-28T13:10:34.126Z,47.57
2017-09-28T13:13:01.847Z,46.63
2017-09-28T13:15:29.400Z,55.90
2017-09-28T13:17:57.715Z,47.43
2017-09-28T13:20:25.236Z,49.70
2017-09-28T13:22:52.746Z,48.50
2017-09-28T13:25:21.236Z,49.83
2017-09-28T13:27:48.737Z,51.80
2017-09-28T13:30:16.272Z,53.57
2017-09-28T13:32:43.972Z,52.50
2017-09-28T13:35:11.508Z,48.63
2017-09-28T13:37:39.180Z,52.90
2017-09-28T13:40:06.942Z,56.10
2017-09-28T13:42:34.703Z,53.70
2017-09-28T13:45:02.469Z,52.57
2017-09-28T13:47:29.996Z,53.13
2017-09-28T13:49:57.720Z,53.07
2017-09-28T13:52:25.243Z,55.50
2017-09-28T13:54:52.941Z,51.07
2017-09-28T13:57:20.456Z,52.70
2017-09-28T13:59:48.147Z,53.40
2017-09-28T14:02:15.676Z,51.03
2017-09-28T14:04:44.307Z,52.30
2017-09-28T14:07:12.020Z,50.83
2017-09-28T14:09:39.526Z,52.20
2017-09-28T14:12:07.263Z,53.20
2017-09-28T14:14:34.799Z,53.40
2017-09-28T14:17:02.353Z,55.63
2017-09-28T14:19:29.939Z,52.30
2017-09-28T14:21:57.712Z,52.60
2017-09-28T14:24:25.466Z,53.30
2017-09-28T14:26:53.228Z,53.67
2017-09-28T14:29:20.746Z,53.20
2017-09-28T14:31:48.445Z,54.60
2017-09-28T14:34:15.960Z,56.30
2017-09-28T14:36:43.682Z,62.27
2017-09-28T14:39:11.184Z,54.70
2017-09-28T14:41:38.704Z,56.50
2017-09-28T14:44:06.215Z,56.47
2017-09-28T14:46:34.103Z,56.07
2017-09-28T14:49:01.624Z,54.90
2017-09-28T14:51:29.325Z,58.10
2017-09-28T14:53:56.843Z,55.67
2017-09-28T14:56:24.725Z,53.13
2017-09-28T14:58:52.225Z,56.80
2017-09-28T15:01:19.764Z,58.93
2017-09-28T15:03:47.302Z,59.20
2017-09-28T15:06:14.864Z,56.30
2017-09-28T15:08:42.389Z,57.63
2017-09-28T15:11:09.915Z,58.60
2017-09-28T15:13:37.452Z,59.47
2017-09-28T15:16:05.128Z,55.70
2017-09-28T15:18:32.669Z,55.80
2017-09-28T15:21:00.248Z,57.00
2017-09-28T15:23:28.012Z,53.90
2017-09-28T15:25:55.540Z,53.73
2017-09-28T15:28:23.069Z,57.60
2017-09-28T15:30:50.573Z,57.73
2017-09-28T15:33:18.220Z,54.17
2017-09-28T15:35:46.011Z,57.57
2017-09-28T15:38:13.945Z,58.20
2017-09-28T15:40:41.444Z,63.47
2017-09-28T15:43:08.968Z,69.20
2017-09-28T15:45:36.480Z,58.10
2017-09-28T15:48:04.204Z,58.10
2017-09-28T15:50:31.976Z,57.67
2017-09-28T15:52:59.499Z,54.57
2017-09-28T15:55:27.012Z,55.63
2017-09-28T15:57:55.301Z,54.10
2017-09-28T16:00:23.020Z,55.10
2017-09-28T16:02:50.544Z,55.67
2017-09-28T16:05:18.048Z,57.07
2017-09-28T16:07:45.695Z,60.00
2017-09-28T16:10:13.460Z,56.23
2017-09-28T16:12:40.974Z,53.87
2017-09-28T16:15:08.684Z,54.97
2017-09-28T16:17:36.447Z,55.50
2017-09-28T16:20:03.975Z,57.20
2017-09-28T16:22:31.605Z,57.87
2017-09-28T16:24:59.120Z,54.97
2017-09-28T16:27:26.632Z,57.80
2017-09-28T16:29:54.320Z,58.23
2017-09-28T16:32:22.103Z,54.97
2017-09-28T16:34:49.873Z,54.37
2017-09-28T16:37:17.644Z,61.90
2017-09-28T16:39:45.169Z,53.47
2017-09-28T16:42:12.809Z,56.27
2017-09-28T16:44:40.312Z,59.23
2017-09-28T16:47:07.843Z,59.80
2017-09-28T16:49:35.923Z,60.43
2017-09-28T16:52:03.530Z,58.23
2017-09-28T16:54:31.398Z,57.60
2017-09-28T16:56:58.918Z,62.97
2017-09-28T16:59:26.454Z,62.33
2017-09-28T17:01:53.971Z,58.43
2017-09-28T17:04:21.509Z,59.83
2017-09-28T17:06:49.312Z,57.27
2017-09-28T17:09:17.025Z,60.73
2017-09-28T17:11:44.555Z,58.60
2017-09-28T17:14:12.064Z,59.00
2017-09-28T17:16:39.631Z,59.67
2017-09-28T17:19:08.052Z,61.00
2017-09-28T17:21:36.583Z,58.17
2017-09-28T17:24:04.117Z,61.03
2017-09-28T17:26:31.676Z,60.47
2017-09-28T17:28:59.192Z,61.53
2017-09-28T17:31:26.877Z,60.10
2017-09-28T17:33:54.707Z,63.50
2017-09-28T17:36:22.262Z,61.70
2017-09-28T17:38:49.754Z,60.23
2017-09-28T17:41:17.258Z,64.47
2017-09-28T17:43:44.793Z,63.90
2017-09-28T17:46:12.558Z,59.23
2017-09-28T17:48:40.338Z,65.63
2017-09-28T17:51:08.064Z,62.47
2017-09-28T17:53:35.844Z,59.47
2017-09-28T17:56:03.384Z,62.10
2017-09-28T17:58:31.067Z,62.00
2017-09-28T18:00:58.704Z,64.20
2017-09-28T18:03:26.292Z,61.67
2017-09-28T18:05:53.824Z,64.57
2017-09-28T18:08:21.483Z,61.27
2017-09-28T18:10:49.004Z,62.00
2017-09-28T18:13:16.723Z,68.00
2017-09-28T18:15:44.515Z,63.50
2017-09-28T18:18:12.038Z,66.17
2017-09-28T18:20:39.555Z,77.33
2017-09-28T18:23:08.328Z,63.10
2017-09-28T18:25:36.748Z,66.30
2017-09-28T18:28:04.268Z,65.70
2017-09-28T18:30:31.788Z,63.73
2017-09-28T18:32:59.325Z,65.10
2017-09-28T18:35:26.920Z,62.60
2017-09-28T18:37:54.442Z,63.23
2017-09-28T18:40:21.957Z,66.17
2017-09-28T18:42:50.248Z,62.37
2017-09-28T18:45:17.788Z,66.43
2017-09-28T18:47:46.212Z,63.33
2017-09-28T18:50:13.728Z,67.20
2017-09-28T18:52:41.264Z,65.87
2017-09-28T18:55:08.803Z,64.43
2017-09-28T18:57:37.000Z,62.73
2017-09-28T19:00:05.479Z,66.00
2017-09-28T19:02:32.996Z,67.30
2017-09-28T19:05:00.576Z,67.10
2017-09-28T19:07:28.087Z,68.77
2017-09-28T19:09:55.641Z,63.97
2017-09-28T19:12:23.252Z,67.30
2017-09-28T19:14:50.791Z,66.00
2017-09-28T19:17:18.312Z,67.90
2017-09-28T19:19:45.827Z,70.20
2017-09-28T19:22:13.492Z,72.10
2017-09-28T19:24:41.024Z,69.00
2017-09-28T19:27:08.545Z,65.90
2017-09-28T19:29:36.060Z,65.70
2017-09-28T19:32:03.659Z,68.80
2017-09-28T19:34:31.178Z,67.57
2017-09-28T19:36:58.692Z,71.40
2017-09-28T19:39:26.201Z,69.33
2017-09-28T19:41:53.768Z,67.07
2017-09-28T19:44:21.520Z,67.90
2017-09-28T19:46:49.284Z,69.03
2017-09-28T19:49:16.832Z,66.90
2017-09-28T19:51:44.504Z,68.60
2017-09-28T19:54:12.018Z,68.50
2017-09-28T19:56:39.708Z,69.80
2017-09-28T19:59:07.259Z,82.03
2017-09-28T20:01:34.758Z,71.80
2017-09-28T20:04:02.388Z,70.77
2017-09-28T20:06:30.181Z,74.13
2017-09-28T20:08:57.702Z,69.70
2017-09-28T20:11:25.384Z,73.50
2017-09-28T20:13:53.165Z,71.57
2017-09-28T20:16:20.690Z,73.20
2017-09-28T20:18:48.379Z,74.17
2017-09-28T20:21:15.913Z,73.13
2017-09-28T20:23:43.613Z,75.27
2017-09-28T20:26:11.125Z,74.03
2017-09-28T20:28:38.815Z,75.53
2017-09-28T20:31:06.333Z,74.60
2017-09-28T20:33:34.036Z,73.77
2017-09-28T20:36:01.536Z,78.30
2017-09-28T20:38:29.061Z,75.97
2017-09-28T20:40:56.663Z,76.20
2017-09-28T20:43:24.183Z,74.23
2017-09-28T20:45:51.920Z,73.93
2017-09-28T20:48:19.636Z,79.53
2017-09-28T20:50:47.173Z,76.30
2017-09-28T20:53:14.983Z,81.37
2017-09-28T20:55:42.492Z,73.90
2017-09-28T20:58:10.310Z,71.70
2017-09-28T21:00:37.834Z,78.23
2017-09-28T21:03:05.531Z,86.10
2017-09-28T21:05:33.126Z,74.90
2017-09-28T21:08:00.646Z,79.10
2017-09-28T21:10:28.173Z,86.87
2017-09-28T21:12:56.464Z,81.60
2017-09-28T21:15:23.984Z,84.80
2017-09-28T21:17:51.623Z,75.80
2017-09-28T21:20:19.146Z,86.00
2017-09-28T21:22:46.665Z,80.47
2017-09-28T21:25:14.304Z,80.43
2017-09-28T21:27:41.830Z,82.10
2017-09-28T21:30:09.409Z,85.20
2017-09-28T21:32:37.015Z,76.43
2017-09-28T21:35:04.529Z,75.00
2017-09-28T21:37:32.107Z,74.83
2017-09-28T21:39:59.698Z,80.30
2017-09-28T21:42:27.400Z,71.47
2017-09-28T21:44:54.909Z,73.53
2017-09-28T21:47:22.613Z,73.10
2017-09-28T21:49:50.125Z,70.87
2017-09-28T21:52:17.835Z,68.47
2017-09-28T21:54:45.348Z,74.13
2017-09-28T21:57:12.863Z,70.47
2017-09-28T21:59:40.529Z,67.73
2017-09-28T22:02:08.048Z,70.40
2017-09-28T22:04:35.760Z,66.67
2017-09-28T22:07:03.288Z,62.97
2017-09-28T22:09:31.296Z,64.40
2017-09-28T22:12:00.316Z,65.13
2017-09-28T22:14:27.836Z,67.03
2017-09-28T22:16:55.496Z,61.83
2017-09-28T22:19:23.135Z,65.50
2017-09-28T22:21:51.370Z,64.23
2017-09-28T22:24:19.080Z,62.20
2017-09-28T22:26:46.583Z,63.70
2017-09-28T22:29:14.096Z,58.63
2017-09-28T22:31:41.617Z,62.77
2017-09-28T22:34:10.152Z,58.70
2017-09-28T22:36:37.671Z,57.07
2017-09-28T22:39:05.367Z,69.07
2017-09-28T22:41:32.888Z,59.10
2017-09-28T22:44:00.564Z,63.20
2017-09-28T22:46:28.358Z,62.67
2017-09-28T22:48:55.885Z,56.27
2017-09-28T22:51:23.398Z,52.27
2017-09-28T22:53:50.903Z,52.03
2017-09-28T22:56:19.192Z,51.53
2017-09-28T22:58:46.859Z,49.50
2017-09-28T23:01:14.386Z,52.47
2017-09-28T23:03:42.088Z,49.03
2017-09-28T23:06:09.633Z,52.73
2017-09-28T23:08:37.137Z,49.10
2017-09-28T23:11:05.682Z,56.23
2017-09-28T23:13:33.196Z,50.90
2017-09-28T23:16:00.761Z,52.60
2017-09-28T23:18:28.333Z,46.57
2017-09-28T23:20:56.119Z,45.20
2017-09-28T23:23:23.883Z,47.80
2017-09-28T23:25:51.418Z,45.67
2017-09-28T23:28:19.112Z,45.50
2017-09-28T23:30:46.631Z,46.37
2017-09-28T23:33:14.323Z,45.60
2017-09-28T23:35:41.838Z,48.03
2017-09-28T23:38:10.054Z,43.80
2017-09-28T23:40:37.617Z,51.40
2017-09-28T23:43:05.380Z,48.47
2017-09-28T23:45:32.891Z,51.37
2017-09-28T23:48:00.576Z,46.10
2017-09-28T23:50:28.088Z,45.90
2017-09-28T23:52:55.614Z,46.20
2017-09-28T23:55:23.280Z,43.07
2017-09-28T23:57:50.884Z,42.17
